createdAt,value
2023-06-30T00:01:00.950Z,2.63
2023-06-30T00:03:28.524Z,2.67
2023-06-30T00:05:55.990Z,2.53
2023-06-30T00:08:23.471Z,2.40
2023-06-30T00:10:50.886Z,2.67
2023-06-30T00:13:18.190Z,2.53
2023-06-30T00:15:48.559Z,2.60
2023-06-30T00:18:16.290Z,2.87
2023-06-30T00:20:43.923Z,2.80
2023-06-30T00:23:12.314Z,2.70
2023-06-30T00:25:39.871Z,2.70
2023-06-30T00:28:07.276Z,2.43
2023-06-30T00:30:35.033Z,2.80
2023-06-30T00:33:02.651Z,2.90
2023-06-30T00:35:30.042Z,2.90
2023-06-30T00:37:57.526Z,2.93
2023-06-30T00:40:24.807Z,3.03
2023-06-30T00:42:52.251Z,3.00
2023-06-30T00:45:19.565Z,3.00
2023-06-30T00:47:46.874Z,2.80
2023-06-30T00:50:15.886Z,2.80
2023-06-30T00:52:46.069Z,3.00
2023-06-30T00:55:13.976Z,3.00
2023-06-30T00:57:41.370Z,3.10
2023-06-30T01:00:12.502Z,2.90
2023-06-30T01:02:53.478Z,2.70
2023-06-30T01:05:26.870Z,2.87
2023-06-30T01:08:20.727Z,2.73
2023-06-30T01:10:48.335Z,2.87
2023-06-30T01:13:16.222Z,2.97
2023-06-30T01:15:45.339Z,3.17
2023-06-30T01:18:13.452Z,3.03
2023-06-30T01:20:41.879Z,2.93
2023-06-30T01:23:16.062Z,2.97
2023-06-30T01:25:44.161Z,3.63
2023-06-30T01:28:12.302Z,2.80
2023-06-30T01:30:39.809Z,2.93
2023-06-30T01:33:07.355Z,3.20
2023-06-30T01:35:34.774Z,2.70
2023-06-30T01:38:03.409Z,3.00
2023-06-30T01:40:32.497Z,2.63
2023-06-30T01:42:59.825Z,2.90
2023-06-30T01:45:28.917Z,2.97
2023-06-30T01:47:57.077Z,2.70
2023-06-30T01:50:24.714Z,2.97
2023-06-30T01:52:51.968Z,3.13
2023-06-30T01:55:19.353Z,2.93
2023-06-30T01:57:46.671Z,3.10
2023-06-30T02:00:15.113Z,2.90
2023-06-30T02:02:42.653Z,2.73
2023-06-30T02:05:10.921Z,2.87
2023-06-30T02:07:38.513Z,3.03
2023-06-30T02:10:08.184Z,2.80
2023-06-30T02:12:36.486Z,3.43
2023-06-30T02:15:04.815Z,3.00
2023-06-30T02:17:34.331Z,3.00
2023-06-30T02:20:01.911Z,3.50
2023-06-30T02:22:29.691Z,3.30
2023-06-30T02:24:57.816Z,3.47
2023-06-30T02:27:25.807Z,3.50
2023-06-30T02:29:53.206Z,3.20
2023-06-30T02:32:20.909Z,3.20
2023-06-30T02:34:48.220Z,3.00
2023-06-30T02:37:15.779Z,3.13
2023-06-30T02:39:43.099Z,3.07
2023-06-30T02:42:10.699Z,3.90
2023-06-30T02:44:38.211Z,3.20
2023-06-30T02:47:05.816Z,3.20
2023-06-30T02:49:34.314Z,2.87
2023-06-30T02:52:01.996Z,3.13
2023-06-30T02:54:29.268Z,3.10
2023-06-30T02:56:57.660Z,3.37
2023-06-30T02:59:25.313Z,3.27
2023-06-30T03:01:52.957Z,3.00
2023-06-30T03:04:20.419Z,3.00
2023-06-30T03:06:47.652Z,3.23
2023-06-30T03:09:16.343Z,3.33
2023-06-30T03:11:44.157Z,2.93
2023-06-30T03:14:12.911Z,3.53
2023-06-30T03:16:44.699Z,3.10
2023-06-30T03:19:13.479Z,3.23
2023-06-30T03:21:41.355Z,3.20
2023-06-30T03:24:09.108Z,3.50
2023-06-30T03:26:36.562Z,3.27
2023-06-30T03:29:03.989Z,3.47
2023-06-30T03:31:33.819Z,3.10
2023-06-30T03:34:01.837Z,3.27
2023-06-30T03:36:29.454Z,3.27
2023-06-30T03:38:56.777Z,3.33
2023-06-30T03:41:24.270Z,3.20
2023-06-30T03:43:51.949Z,3.20
2023-06-30T03:46:19.572Z,3.00
2023-06-30T03:48:46.911Z,3.47
2023-06-30T03:51:14.354Z,3.47
2023-06-30T03:53:43.473Z,3.10
2023-06-30T03:56:10.972Z,3.10
2023-06-30T03:58:38.535Z,3.37
2023-06-30T04:01:05.991Z,3.90
2023-06-30T04:03:34.593Z,3.93
2023-06-30T04:06:02.009Z,3.30
2023-06-30T04:08:30.578Z,3.27
2023-06-30T04:10:58.090Z,3.60
2023-06-30T04:13:25.488Z,3.23
2023-06-30T04:15:52.823Z,3.10
2023-06-30T04:18:20.322Z,3.57
2023-06-30T04:20:48.498Z,3.77
2023-06-30T04:23:16.148Z,3.80
2023-06-30T04:25:43.675Z,3.40
2023-06-30T04:28:11.087Z,3.23
2023-06-30T04:30:38.547Z,3.93
2023-06-30T04:33:05.946Z,3.67
2023-06-30T04:35:33.200Z,3.87
2023-06-30T04:38:00.512Z,3.50
2023-06-30T04:40:27.744Z,3.67
2023-06-30T04:42:55.196Z,4.10
2023-06-30T04:45:22.501Z,3.70
2023-06-30T04:47:50.503Z,4.03
2023-06-30T04:50:17.937Z,5.33
2023-06-30T04:52:45.326Z,15.07
2023-06-30T04:55:12.702Z,4.30
2023-06-30T04:57:40.104Z,4.00
2023-06-30T05:00:10.241Z,4.23
2023-06-30T05:02:37.953Z,4.50
2023-06-30T05:05:05.346Z,4.00
2023-06-30T05:07:32.688Z,4.43
2023-06-30T05:09:59.946Z,4.20
2023-06-30T05:12:27.200Z,3.77
2023-06-30T05:14:54.484Z,3.93
2023-06-30T05:17:21.978Z,3.67
2023-06-30T05:19:49.567Z,3.80
2023-06-30T05:22:17.024Z,3.60
2023-06-30T05:24:44.535Z,3.57
2023-06-30T05:27:11.837Z,3.97
2023-06-30T05:29:39.092Z,6.17
2023-06-30T05:32:06.613Z,3.90
2023-06-30T05:34:33.909Z,3.87
2023-06-30T05:37:01.344Z,3.70
2023-06-30T05:39:28.647Z,3.83
2023-06-30T05:41:55.899Z,4.10
2023-06-30T05:44:23.278Z,4.07
2023-06-30T05:46:50.999Z,4.33
2023-06-30T05:49:18.292Z,4.03
2023-06-30T05:51:45.712Z,3.90
2023-06-30T05:54:13.813Z,3.70
2023-06-30T05:56:41.201Z,3.87
2023-06-30T05:59:11.444Z,4.20
2023-06-30T06:01:42.121Z,3.70
2023-06-30T06:04:12.768Z,4.17
2023-06-30T06:06:40.333Z,4.00
2023-06-30T06:09:07.988Z,3.77
2023-06-30T06:11:35.227Z,3.60
2023-06-30T06:14:02.543Z,3.90
2023-06-30T06:16:29.799Z,3.80
2023-06-30T06:18:57.219Z,4.03
2023-06-30T06:21:28.423Z,3.73
2023-06-30T06:23:58.525Z,3.67
2023-06-30T06:26:25.842Z,4.07
2023-06-30T06:28:53.127Z,3.87
2023-06-30T06:31:20.945Z,3.63
2023-06-30T06:33:48.265Z,3.80
2023-06-30T06:36:15.645Z,3.73
2023-06-30T06:38:42.878Z,4.20
2023-06-30T06:41:10.173Z,3.63
2023-06-30T06:43:37.385Z,4.40
2023-06-30T06:46:04.760Z,3.83
2023-06-30T06:48:32.031Z,4.07
2023-06-30T06:51:00.176Z,3.50
2023-06-30T06:53:28.671Z,4.57
2023-06-30T06:55:57.141Z,3.70
2023-06-30T06:58:25.827Z,3.50
2023-06-30T07:00:53.747Z,3.77
2023-06-30T07:03:21.399Z,3.60
2023-06-30T07:05:49.135Z,4.07
2023-06-30T07:08:17.981Z,4.03
2023-06-30T07:10:46.052Z,4.00
2023-06-30T07:13:14.770Z,3.87
2023-06-30T07:15:42.114Z,3.83
2023-06-30T07:18:09.598Z,4.13
2023-06-30T07:20:37.139Z,3.77
2023-06-30T07:23:04.615Z,4.20
2023-06-30T07:25:31.861Z,3.57
2023-06-30T07:27:59.361Z,4.00
2023-06-30T07:30:27.674Z,4.50
2023-06-30T07:32:55.444Z,4.70
2023-06-30T07:35:23.794Z,4.30
2023-06-30T07:37:51.650Z,4.30
2023-06-30T07:40:21.841Z,4.13
2023-06-30T07:42:51.240Z,4.23
2023-06-30T07:45:19.069Z,4.10
2023-06-30T07:47:47.573Z,4.10
2023-06-30T07:50:15.676Z,4.00
2023-06-30T07:52:49.233Z,4.83
2023-06-30T07:55:17.647Z,4.10
2023-06-30T07:57:46.026Z,4.20
2023-06-30T08:00:16.596Z,3.60
2023-06-30T08:02:44.571Z,4.60
2023-06-30T08:05:12.415Z,4.63
2023-06-30T08:07:48.113Z,4.57
2023-06-30T08:10:17.785Z,4.43
2023-06-30T08:12:45.028Z,4.57
2023-06-30T08:15:12.644Z,4.50
2023-06-30T08:17:53.597Z,4.30
2023-06-30T08:20:24.705Z,4.43
2023-06-30T08:22:52.343Z,4.40
2023-06-30T08:25:25.950Z,4.60
2023-06-30T08:27:53.854Z,5.00
2023-06-30T08:30:24.067Z,4.80
2023-06-30T08:32:52.841Z,4.30
2023-06-30T08:35:20.337Z,4.27
2023-06-30T08:37:50.940Z,4.77
2023-06-30T08:40:26.727Z,4.50
2023-06-30T08:42:55.152Z,4.67
2023-06-30T08:45:25.794Z,4.60
2023-06-30T08:47:53.945Z,5.20
2023-06-30T08:50:24.667Z,5.70
2023-06-30T08:52:52.252Z,5.13
2023-06-30T08:55:19.528Z,5.60
2023-06-30T08:57:47.417Z,5.23
2023-06-30T09:00:15.927Z,5.50
2023-06-30T09:02:44.634Z,4.80
2023-06-30T09:05:12.997Z,5.00
2023-06-30T09:07:47.736Z,4.63
2023-06-30T09:10:15.702Z,5.40
2023-06-30T09:12:43.864Z,5.20
2023-06-30T09:15:11.800Z,4.80
2023-06-30T09:17:39.374Z,5.50
2023-06-30T09:20:07.170Z,5.47
2023-06-30T09:22:53.099Z,5.00
2023-06-30T09:25:28.780Z,5.20
2023-06-30T09:27:56.805Z,5.40
2023-06-30T09:30:37.606Z,5.13
2023-06-30T09:33:04.994Z,5.30
2023-06-30T09:35:39.834Z,5.37
2023-06-30T09:38:29.382Z,5.77
2023-06-30T09:40:57.204Z,5.57
2023-06-30T09:43:25.494Z,5.60
2023-06-30T09:46:00.924Z,5.70
2023-06-30T09:48:33.185Z,5.90
2023-06-30T09:51:00.953Z,5.60
2023-06-30T09:53:30.227Z,5.43
2023-06-30T09:55:57.521Z,5.20
2023-06-30T09:58:24.839Z,5.63
2023-06-30T10:00:52.809Z,5.97
2023-06-30T10:03:20.400Z,5.33
2023-06-30T10:05:51.365Z,5.10
2023-06-30T10:08:18.764Z,5.30
2023-06-30T10:10:46.194Z,5.40
2023-06-30T10:13:16.377Z,5.53
2023-06-30T10:15:44.070Z,5.40
2023-06-30T10:18:12.300Z,5.40
2023-06-30T10:20:47.817Z,6.07
2023-06-30T10:23:17.577Z,5.77
2023-06-30T10:25:45.178Z,5.47
2023-06-30T10:28:12.791Z,5.47
2023-06-30T10:30:40.471Z,5.40
2023-06-30T10:33:08.100Z,5.03
2023-06-30T10:35:36.185Z,5.30
2023-06-30T10:38:03.600Z,5.43
2023-06-30T10:40:31.795Z,5.00
2023-06-30T10:42:59.861Z,5.17
2023-06-30T10:45:31.892Z,4.87
2023-06-30T10:47:59.545Z,5.30
2023-06-30T10:50:26.925Z,5.57
2023-06-30T10:52:54.870Z,4.90
2023-06-30T10:55:22.979Z,5.67
2023-06-30T10:57:54.640Z,5.40
2023-06-30T11:00:23.104Z,5.27
2023-06-30T11:02:58.686Z,5.00
2023-06-30T11:05:33.918Z,5.60
2023-06-30T11:08:04.869Z,5.40
2023-06-30T11:10:35.642Z,5.57
2023-06-30T11:13:07.031Z,5.60
2023-06-30T11:15:57.132Z,5.53
2023-06-30T11:18:25.239Z,4.67
2023-06-30T11:21:02.791Z,4.77
2023-06-30T11:23:31.146Z,5.37
2023-06-30T11:25:59.057Z,4.63
2023-06-30T11:28:27.310Z,5.20
2023-06-30T11:30:54.623Z,4.87
2023-06-30T11:33:21.981Z,5.13
2023-06-30T11:35:53.764Z,4.93
2023-06-30T11:38:21.273Z,5.03
2023-06-30T11:40:51.034Z,4.33
2023-06-30T11:43:23.035Z,4.70
2023-06-30T11:45:57.459Z,4.40
2023-06-30T11:48:24.834Z,4.70
2023-06-30T11:50:52.130Z,4.77
2023-06-30T11:53:19.736Z,4.47
2023-06-30T11:55:47.182Z,4.20
2023-06-30T11:58:19.584Z,4.40
2023-06-30T12:00:47.845Z,4.70
2023-06-30T12:03:18.602Z,4.40
2023-06-30T12:05:56.523Z,4.70
2023-06-30T12:08:26.038Z,4.70
2023-06-30T12:10:53.804Z,5.30
2023-06-30T12:13:21.355Z,5.43
2023-06-30T12:15:57.374Z,5.03
2023-06-30T12:18:38.153Z,4.80
2023-06-30T12:21:12.549Z,4.50
2023-06-30T12:23:44.524Z,4.60
2023-06-30T12:26:14.966Z,4.30
2023-06-30T12:28:43.553Z,4.47
2023-06-30T12:31:11.383Z,3.90
2023-06-30T12:33:38.749Z,3.93
2023-06-30T12:36:09.599Z,3.90
2023-06-30T12:38:36.952Z,4.33
2023-06-30T12:41:05.007Z,4.20
2023-06-30T12:43:34.496Z,4.10
2023-06-30T12:46:02.173Z,4.07
2023-06-30T12:48:29.459Z,4.10
2023-06-30T12:50:57.943Z,4.23
2023-06-30T12:53:25.458Z,4.33
2023-06-30T12:55:53.011Z,4.20
2023-06-30T12:58:20.714Z,4.10
2023-06-30T13:00:48.561Z,4.50
2023-06-30T13:03:15.929Z,3.97
2023-06-30T13:05:43.310Z,4.37
2023-06-30T13:08:10.753Z,4.37
2023-06-30T13:10:38.081Z,4.50
2023-06-30T13:13:05.406Z,4.00
2023-06-30T13:15:32.734Z,4.33
2023-06-30T13:18:00.302Z,4.23
2023-06-30T13:20:27.765Z,4.60
2023-06-30T13:23:10.008Z,4.63
2023-06-30T13:25:39.966Z,4.17
2023-06-30T13:28:07.398Z,4.20
2023-06-30T13:30:35.770Z,3.67
2023-06-30T13:33:03.021Z,4.17
2023-06-30T13:35:30.384Z,4.47
2023-06-30T13:37:57.683Z,4.87
2023-06-30T13:40:24.959Z,5.10
2023-06-30T13:42:52.293Z,5.30
2023-06-30T13:45:21.200Z,4.90
2023-06-30T13:47:48.574Z,5.33
2023-06-30T13:50:16.841Z,5.80
2023-06-30T13:52:44.370Z,5.40
2023-06-30T13:55:11.692Z,5.87
2023-06-30T13:57:39.043Z,5.00
2023-06-30T14:00:06.669Z,5.87
2023-06-30T14:02:34.124Z,6.53
2023-06-30T14:05:01.670Z,5.80
2023-06-30T14:07:29.145Z,6.43
2023-06-30T14:09:59.484Z,6.03
2023-06-30T14:12:27.114Z,6.10
2023-06-30T14:14:54.370Z,6.43
2023-06-30T14:17:21.745Z,6.60
2023-06-30T14:19:51.170Z,7.90
2023-06-30T14:22:19.736Z,6.63
2023-06-30T14:24:47.377Z,6.90
2023-06-30T14:27:14.661Z,7.37
2023-06-30T14:29:43.610Z,6.90
2023-06-30T14:32:11.393Z,6.80
2023-06-30T14:34:39.479Z,7.00
2023-06-30T14:37:06.878Z,6.87
2023-06-30T14:39:34.221Z,6.83
2023-06-30T14:42:03.067Z,6.77
2023-06-30T14:44:30.589Z,7.03
2023-06-30T14:46:59.979Z,7.43
2023-06-30T14:49:27.450Z,6.93
2023-06-30T14:51:54.697Z,7.57
2023-06-30T14:54:22.046Z,7.10
2023-06-30T14:56:49.369Z,7.93
2023-06-30T14:59:16.811Z,7.63
2023-06-30T15:01:44.297Z,7.70
2023-06-30T15:04:11.858Z,6.93
2023-06-30T15:06:39.197Z,7.50
2023-06-30T15:09:06.871Z,6.70
2023-06-30T15:11:34.252Z,6.77
2023-06-30T15:14:01.558Z,7.10
2023-06-30T15:16:28.984Z,7.40
2023-06-30T15:18:56.324Z,6.60
2023-06-30T15:21:23.866Z,7.13
2023-06-30T15:23:51.227Z,7.10
2023-06-30T15:26:18.531Z,6.77
2023-06-30T15:28:45.844Z,6.40
2023-06-30T15:31:13.903Z,6.63
2023-06-30T15:33:41.422Z,6.77
2023-06-30T15:36:08.832Z,8.10
2023-06-30T15:38:36.173Z,6.43
2023-06-30T15:41:21.839Z,6.33
2023-06-30T15:43:50.666Z,6.63
2023-06-30T15:46:18.605Z,7.00
2023-06-30T15:48:45.976Z,5.97
2023-06-30T15:51:13.840Z,6.43
2023-06-30T15:53:41.141Z,6.43
2023-06-30T15:56:09.054Z,6.60
2023-06-30T15:58:36.353Z,6.50
2023-06-30T16:01:03.938Z,7.17
2023-06-30T16:03:31.455Z,21.47
2023-06-30T16:05:59.100Z,8.00
2023-06-30T16:08:26.716Z,9.90
2023-06-30T16:10:54.001Z,6.53
2023-06-30T16:13:21.325Z,10.10
2023-06-30T16:15:49.088Z,7.53
2023-06-30T16:18:16.914Z,6.87
2023-06-30T16:21:03.178Z,7.00
2023-06-30T16:23:30.672Z,6.80
2023-06-30T16:25:58.050Z,6.40
2023-06-30T16:28:25.324Z,6.77
2023-06-30T16:30:52.703Z,6.67
2023-06-30T16:33:20.303Z,6.63
2023-06-30T16:35:48.065Z,5.57
2023-06-30T16:38:15.678Z,6.20
2023-06-30T16:40:43.042Z,6.23
2023-06-30T16:43:10.566Z,6.40
2023-06-30T16:45:37.946Z,6.70
2023-06-30T16:48:05.738Z,7.23
2023-06-30T16:50:33.038Z,6.67
2023-06-30T16:53:00.620Z,7.20
2023-06-30T16:55:27.903Z,5.90
2023-06-30T16:57:55.347Z,6.23
2023-06-30T17:00:22.688Z,5.70
2023-06-30T17:02:50.520Z,6.50
2023-06-30T17:05:18.367Z,5.40
2023-06-30T17:07:45.774Z,5.73
2023-06-30T17:10:13.461Z,6.40
2023-06-30T17:12:40.849Z,6.60
2023-06-30T17:15:11.243Z,6.40
2023-06-30T17:17:38.778Z,7.07
2023-06-30T17:20:06.475Z,7.07
2023-06-30T17:22:33.932Z,7.63
2023-06-30T17:25:05.195Z,8.20
2023-06-30T17:27:33.153Z,7.83
2023-06-30T17:30:00.440Z,8.30
2023-06-30T17:32:27.996Z,15.40
2023-06-30T17:34:55.758Z,8.87
2023-06-30T17:37:23.118Z,8.60
2023-06-30T17:39:51.623Z,9.27
2023-06-30T17:42:18.926Z,16.50
2023-06-30T17:44:46.234Z,14.90
2023-06-30T17:47:13.521Z,9.20
2023-06-30T17:49:42.851Z,9.17
2023-06-30T17:52:10.627Z,8.97
2023-06-30T17:54:38.126Z,9.13
2023-06-30T17:57:05.755Z,8.10
2023-06-30T17:59:33.078Z,8.63
2023-06-30T18:02:01.557Z,9.30
2023-06-30T18:04:29.646Z,9.67
2023-06-30T18:07:08.612Z,10.53
2023-06-30T18:09:37.192Z,10.93
2023-06-30T18:12:04.981Z,9.37
2023-06-30T18:14:33.095Z,9.43
2023-06-30T18:17:01.008Z,10.43
2023-06-30T18:19:28.541Z,10.83
2023-06-30T18:21:56.445Z,11.13
2023-06-30T18:24:24.196Z,12.27
2023-06-30T18:26:51.760Z,11.20
2023-06-30T18:29:23.865Z,11.93
2023-06-30T18:31:52.155Z,11.93
2023-06-30T18:34:20.204Z,11.47
2023-06-30T18:36:47.552Z,11.90
2023-06-30T18:39:15.022Z,12.07
2023-06-30T18:41:43.362Z,12.63
2023-06-30T18:44:10.689Z,12.17
2023-06-30T18:46:38.147Z,12.17
2023-06-30T18:49:09.677Z,11.53
2023-06-30T18:51:39.980Z,12.37
2023-06-30T18:54:07.542Z,12.30
2023-06-30T18:56:35.077Z,12.13
2023-06-30T18:59:03.986Z,12.03
2023-06-30T19:01:31.624Z,11.17
2023-06-30T19:03:59.263Z,11.07
2023-06-30T19:06:27.118Z,10.80
2023-06-30T19:08:55.029Z,10.20
2023-06-30T19:11:22.808Z,9.57
2023-06-30T19:13:50.558Z,9.23
2023-06-30T19:16:18.254Z,9.27
2023-06-30T19:18:46.044Z,8.73
2023-06-30T19:21:13.671Z,8.83
2023-06-30T19:23:44.207Z,8.63
2023-06-30T19:26:12.667Z,7.97
2023-06-30T19:28:41.345Z,8.43
2023-06-30T19:31:09.430Z,7.77
2023-06-30T19:33:37.861Z,8.27
2023-06-30T19:36:05.836Z,7.63
2023-06-30T19:38:33.426Z,8.63
2023-06-30T19:41:00.913Z,7.90
2023-06-30T19:43:28.310Z,7.80
2023-06-30T19:45:55.783Z,7.90
2023-06-30T19:48:23.709Z,7.93
2023-06-30T19:50:51.643Z,6.80
2023-06-30T19:53:18.964Z,8.20
2023-06-30T19:55:47.046Z,8.43
2023-06-30T19:58:14.786Z,8.13
2023-06-30T20:00:42.055Z,7.07
2023-06-30T20:03:09.644Z,8.10
2023-06-30T20:05:37.178Z,8.00
2023-06-30T20:08:04.641Z,6.90
2023-06-30T20:10:32.043Z,7.67
2023-06-30T20:12:59.402Z,7.87
2023-06-30T20:15:27.060Z,8.20
2023-06-30T20:17:54.573Z,7.37
2023-06-30T20:20:22.084Z,7.63
2023-06-30T20:22:49.442Z,7.50
2023-06-30T20:25:19.408Z,7.40
2023-06-30T20:27:46.990Z,8.17
2023-06-30T20:30:14.330Z,8.03
2023-06-30T20:32:41.809Z,7.70
2023-06-30T20:35:10.100Z,7.90
2023-06-30T20:37:37.562Z,8.20
2023-06-30T20:40:05.205Z,8.30
2023-06-30T20:42:32.704Z,8.77
2023-06-30T20:45:00.013Z,8.07
2023-06-30T20:47:27.347Z,9.50
2023-06-30T20:49:54.896Z,7.80
2023-06-30T20:52:22.299Z,8.67
2023-06-30T20:54:49.742Z,8.73
2023-06-30T20:57:16.991Z,9.33
2023-06-30T20:59:44.584Z,8.77
2023-06-30T21:02:11.957Z,8.60
2023-06-30T21:04:39.378Z,8.70
2023-06-30T21:07:07.034Z,8.47
2023-06-30T21:09:34.398Z,8.90
2023-06-30T21:12:01.913Z,7.90
2023-06-30T21:14:48.489Z,8.03
2023-06-30T21:17:15.847Z,7.53
2023-06-30T21:19:43.417Z,7.33
2023-06-30T21:22:10.794Z,7.10
2023-06-30T21:24:38.192Z,7.20
2023-06-30T21:27:05.797Z,7.30
2023-06-30T21:29:33.170Z,7.50
2023-06-30T21:32:00.874Z,7.20
2023-06-30T21:34:28.229Z,7.80
2023-06-30T21:36:55.591Z,8.00
2023-06-30T21:39:23.073Z,10.00
2023-06-30T21:41:50.421Z,7.23
2023-06-30T21:44:18.728Z,7.43
2023-06-30T21:46:46.578Z,7.13
2023-06-30T21:49:14.183Z,6.77
2023-06-30T21:51:41.508Z,6.60
2023-06-30T21:54:08.919Z,7.13
2023-06-30T21:56:36.188Z,7.47
2023-06-30T21:59:03.511Z,6.80
2023-06-30T22:01:39.869Z,7.33
2023-06-30T22:04:08.920Z,6.57
2023-06-30T22:06:36.485Z,7.13
2023-06-30T22:09:11.633Z,7.03
2023-06-30T22:11:44.135Z,6.50
2023-06-30T22:14:13.233Z,7.43
2023-06-30T22:16:40.769Z,7.33
2023-06-30T22:19:08.189Z,7.27
2023-06-30T22:21:35.634Z,7.67
2023-06-30T22:24:03.157Z,6.67
2023-06-30T22:26:30.663Z,7.03
2023-06-30T22:28:58.002Z,6.60
2023-06-30T22:31:25.486Z,6.93
2023-06-30T22:33:52.863Z,6.73
2023-06-30T22:36:20.143Z,7.20
2023-06-30T22:38:47.482Z,6.47
2023-06-30T22:41:14.790Z,6.47
2023-06-30T22:43:42.136Z,6.43
2023-06-30T22:46:09.409Z,6.47
2023-06-30T22:48:36.604Z,7.47
2023-06-30T22:51:03.937Z,7.27
2023-06-30T22:53:31.219Z,6.33
2023-06-30T22:55:58.645Z,6.70
2023-06-30T23:01:11.426Z,6.80
2023-06-30T23:03:38.745Z,6.33
2023-06-30T23:06:06.049Z,6.73
2023-06-30T23:08:33.375Z,5.60
2023-06-30T23:11:00.788Z,6.10
2023-06-30T23:13:28.113Z,5.67
2023-06-30T23:15:56.265Z,5.90
2023-06-30T23:18:23.656Z,5.97
2023-06-30T23:20:52.784Z,5.60
2023-06-30T23:23:29.026Z,5.97
2023-06-30T23:25:56.572Z,6.07
2023-06-30T23:28:23.897Z,5.70
2023-06-30T23:30:51.465Z,5.73
2023-06-30T23:33:20.364Z,5.50
2023-06-30T23:35:47.635Z,5.77
2023-06-30T23:38:14.995Z,6.30
2023-06-30T23:40:44.743Z,5.83
2023-06-30T23:43:12.332Z,5.37
2023-06-30T23:45:39.593Z,5.27
2023-06-30T23:48:06.937Z,5.30
2023-06-30T23:50:34.304Z,5.47
2023-06-30T23:53:01.612Z,5.63
2023-06-30T23:55:28.959Z,5.57
2023-06-30T23:57:56.204Z,5.43
